Time,TemperatureF,DewpointF,PressureIn,WindDirection,WindDirectionDegrees,WindSpeedMPH,WindSpeedGustMPH,Humidity,HourlyPrecipIn,Conditions,Clouds,dailyrainin,SoftwareType,DateUTC
2013-06-25 00:01:00,74.1,63.3,30.09,NW,315,0.0,0.0,69,0.00,,,0.00,pywws,2013-06-25 04:01:00,
2013-06-25 00:02:00,74.1,63.3,30.09,NW,315,0.0,0.0,69,0.00,,,0.00,pywws,2013-06-25 04:02:00,
2013-06-25 00:03:00,74.1,63.3,30.09,NW,315,0.0,0.0,69,0.00,,,0.00,pywws,2013-06-25 04:03:00,
2013-06-25 00:04:00,74.1,63.3,30.09,NW,315,0.0,0.0,69,0.00,,,0.00,pywws,2013-06-25 04:04:00,
2013-06-25 00:06:00,74.1,63.3,30.09,NW,315,0.0,0.0,69,0.00,,,0.00,pywws,2013-06-25 04:06:00,
2013-06-25 00:07:00,74.1,63.3,30.09,SW,225,0.0,0.0,69,0.00,,,0.00,pywws,2013-06-25 04:07:00,
2013-06-25 00:12:00,74.1,63.3,30.09,SW,225,0.0,0.0,69,0.00,,,0.00,pywws,2013-06-25 04:12:00,
2013-06-25 00:13:00,74.1,63.3,30.09,SW,225,0.0,0.0,69,0.00,,,0.00,pywws,2013-06-25 04:13:00,
2013-06-25 00:17:00,74.1,62.9,30.09,SW,225,0.0,0.0,68,0.00,,,0.00,pywws,2013-06-25 04:17:00,
2013-06-25 00:19:00,74.1,62.9,30.09,SW,225,0.0,0.0,68,0.00,,,0.00,pywws,2013-06-25 04:19:00,
2013-06-25 00:22:00,74.1,62.9,30.09,East,90,0.0,0.0,68,0.00,,,0.00,pywws,2013-06-25 04:22:00,
2013-06-25 00:25:00,74.1,62.9,30.09,East,90,0.7,0.7,68,0.00,,,0.00,pywws,2013-06-25 04:25:00,
2013-06-25 00:28:00,73.9,63.1,30.09,North,0,0.0,0.0,69,0.00,,,0.00,pywws,2013-06-25 04:28:00,
2013-06-25 00:31:00,73.9,63.1,30.09,East,90,0.0,0.0,69,0.00,,,0.00,pywws,2013-06-25 04:31:00,
2013-06-25 00:33:00,73.9,63.1,30.09,SE,135,0.0,0.0,69,0.00,,,0.00,pywws,2013-06-25 04:33:00,
2013-06-25 00:37:00,73.9,63.5,30.08,NW,315,0.0,0.0,70,0.00,,,0.00,pywws,2013-06-25 04:37:00,
2013-06-25 00:38:00,73.9,63.5,30.08,NW,315,0.0,0.0,70,0.00,,,0.00,pywws,2013-06-25 04:38:00,
2013-06-25 00:44:00,73.8,62.9,30.08,West,270,0.0,0.0,69,0.00,,,0.00,pywws,2013-06-25 04:44:00,
2013-06-25 00:49:00,73.8,62.9,30.07,West,270,0.0,0.0,69,0.00,,,0.00,pywws,2013-06-25 04:49:00,
2013-06-25 00:50:00,73.8,62.9,30.07,SE,135,0.0,0.0,69,0.00,,,0.00,pywws,2013-06-25 04:50:00,
2013-06-25 00:54:00,73.8,62.9,30.07,East,90,0.0,0.0,69,0.00,,,0.00,pywws,2013-06-25 04:54:00,
2013-06-25 00:55:00,73.6,62.8,30.07,NE,45,0.0,0.0,69,0.00,,,0.00,pywws,2013-06-25 04:55:00,
2013-06-25 01:05:00,73.6,62.8,30.08,NE,45,0.0,0.0,69,0.00,,,0.00,pywws,2013-06-25 05:05:00,
2013-06-25 01:10:00,73.8,63.4,30.08,NW,315,0.0,1.6,70,0.00,,,0.00,pywws,2013-06-25 05:10:00,
2013-06-25 01:17:00,73.8,63.4,30.08,NW,315,0.0,0.0,70,0.00,,,0.00,pywws,2013-06-25 05:17:00,
2013-06-25 01:23:00,73.8,62.9,30.07,West,270,0.0,1.6,69,0.00,,,0.00,pywws,2013-06-25 05:23:00,
2013-06-25 01:28:00,73.8,62.9,30.07,North,0,0.7,1.6,69,0.00,,,0.00,pywws,2013-06-25 05:28:00,
2013-06-25 01:34:00,73.8,62.9,30.07,West,270,0.0,0.7,69,0.00,,,0.00,pywws,2013-06-25 05:34:00,
2013-06-25 01:39:00,73.8,62.9,30.07,NW,315,0.0,0.0,69,0.00,,,0.00,pywws,2013-06-25 05:39:00,
2013-06-25 01:45:00,73.8,62.9,30.07,NW,315,0.0,0.0,69,0.00,,,0.00,pywws,2013-06-25 05:45:00,
2013-06-25 01:51:00,73.8,63.4,30.06,East,90,0.0,0.0,70,0.00,,,0.00,pywws,2013-06-25 05:51:00,
2013-06-25 01:56:00,73.6,63.2,30.06,SW,225,0.0,0.7,70,0.00,,,0.00,pywws,2013-06-25 05:56:00,
2013-06-25 02:03:00,73.6,63.2,30.06,East,90,0.0,0.0,70,0.00,,,0.00,pywws,2013-06-25 06:03:00,
2013-06-25 02:09:00,73.6,63.2,30.06,NE,45,0.0,0.7,70,0.00,,,0.00,pywws,2013-06-25 06:09:00,
2013-06-25 02:15:00,73.4,63.4,30.06,East,90,0.0,0.0,71,0.00,,,0.00,pywws,2013-06-25 06:15:00,
2013-06-25 02:20:00,73.4,63.4,30.06,NW,315,0.0,0.0,71,0.00,,,0.00,pywws,2013-06-25 06:20:00,
2013-06-25 02:26:00,73.4,63.4,30.06,West,270,0.0,1.6,71,0.00,,,0.00,pywws,2013-06-25 06:26:00,
2013-06-25 02:31:00,73.4,63.4,30.05,SW,225,0.7,1.6,71,0.00,,,0.00,pywws,2013-06-25 06:31:00,
2013-06-25 02:38:00,73.4,63.4,30.06,SW,225,0.0,0.0,71,0.00,,,0.00,pywws,2013-06-25 06:38:00,
2013-06-25 02:43:00,73.4,63.4,30.06,SW,225,0.0,0.7,71,0.00,,,0.00,pywws,2013-06-25 06:43:00,
2013-06-25 02:49:00,73.4,63.4,30.06,SW,225,0.0,0.0,71,0.00,,,0.00,pywws,2013-06-25 06:49:00,
2013-06-25 02:55:00,73.4,63.4,30.05,SE,135,0.0,0.0,71,0.00,,,0.00,pywws,2013-06-25 06:55:00,
2013-06-25 03:01:00,73.4,63.4,30.05,SE,135,0.0,0.0,71,0.00,,,0.00,pywws,2013-06-25 07:01:00,
2013-06-25 03:08:00,73.4,63.4,30.05,NW,315,0.0,0.0,71,0.00,,,0.00,pywws,2013-06-25 07:08:00,
2013-06-25 03:14:00,73.4,63.4,30.05,NW,315,0.0,0.0,71,0.00,,,0.00,pywws,2013-06-25 07:14:00,
2013-06-25 03:19:00,73.2,63.2,30.05,West,270,0.0,0.0,71,0.00,,,0.00,pywws,2013-06-25 07:19:00,
2013-06-25 03:25:00,73.0,63.1,30.05,West,270,0.0,0.0,71,0.00,,,0.00,pywws,2013-06-25 07:25:00,
2013-06-25 03:31:00,73.0,63.1,30.04,South,180,0.0,0.0,71,0.00,,,0.00,pywws,2013-06-25 07:31:00,
2013-06-25 03:37:00,72.9,63.3,30.04,SW,225,0.7,2.2,72,0.00,,,0.00,pywws,2013-06-25 07:37:00,
2013-06-25 03:43:00,72.7,63.1,30.04,SW,225,3.1,3.8,72,0.00,,,0.00,pywws,2013-06-25 07:43:00,
2013-06-25 03:48:00,72.7,63.1,30.04,SW,225,0.7,2.2,72,0.00,,,0.00,pywws,2013-06-25 07:48:00,
2013-06-25 03:54:00,72.7,63.1,30.04,SW,225,1.6,3.1,72,0.00,,,0.00,pywws,2013-06-25 07:54:00,
2013-06-25 03:59:00,72.9,63.3,30.04,South,180,0.0,1.6,72,0.00,,,0.00,pywws,2013-06-25 07:59:00,
2013-06-25 04:05:00,72.7,63.1,30.04,SSW,202,0.7,3.1,72,0.00,,,0.00,pywws,2013-06-25 08:05:00,
2013-06-25 04:11:00,72.7,63.1,30.03,South,180,0.0,1.6,72,0.00,,,0.00,pywws,2013-06-25 08:11:00,
2013-06-25 04:16:00,72.7,63.1,30.04,SW,225,1.6,3.1,72,0.00,,,0.00,pywws,2013-06-25 08:16:00,
2013-06-25 04:22:00,72.5,62.9,30.04,SW,225,2.2,3.8,72,0.00,,,0.00,pywws,2013-06-25 08:22:00,
2013-06-25 04:27:00,72.5,62.9,30.03,SW,225,0.0,0.0,72,0.00,,,0.00,pywws,2013-06-25 08:27:00,
2013-06-25 04:33:00,72.5,62.9,30.03,NE,45,0.0,0.0,72,0.00,,,0.00,pywws,2013-06-25 08:33:00,
2013-06-25 04:39:00,72.3,62.8,30.04,SE,135,0.0,0.7,72,0.00,,,0.00,pywws,2013-06-25 08:39:00,
2013-06-25 04:44:00,72.3,63.2,30.04,South,180,0.7,2.2,73,0.00,,,0.00,pywws,2013-06-25 08:44:00,
2013-06-25 04:50:00,72.1,63.0,30.04,NW,315,0.0,0.7,73,0.00,,,0.00,pywws,2013-06-25 08:50:00,
2013-06-25 04:55:00,72.1,63.0,30.04,SW,225,0.7,1.6,73,0.00,,,0.00,pywws,2013-06-25 08:55:00,
2013-06-25 05:01:00,72.1,63.0,30.04,SW,225,0.0,0.7,73,0.00,,,0.00,pywws,2013-06-25 09:01:00,
2013-06-25 05:07:00,72.1,63.4,30.04,SW,225,1.6,2.2,74,0.00,,,0.00,pywws,2013-06-25 09:07:00,
2013-06-25 05:13:00,72.0,63.2,30.04,East,90,0.7,1.6,74,0.00,,,0.00,pywws,2013-06-25 09:13:00,
2013-06-25 05:19:00,71.6,62.9,30.05,East,90,0.0,0.0,74,0.00,,,0.00,pywws,2013-06-25 09:19:00,
2013-06-25 05:25:00,71.4,63.4,30.05,SW,225,0.7,2.2,76,0.00,,,0.00,pywws,2013-06-25 09:25:00,
2013-06-25 05:31:00,71.2,63.3,30.05,South,180,2.2,3.8,76,0.00,,,0.00,pywws,2013-06-25 09:31:00,
2013-06-25 05:36:00,71.2,63.3,30.05,SW,225,1.6,2.2,76,0.00,,,0.00,pywws,2013-06-25 09:36:00,
2013-06-25 05:42:00,71.2,63.6,30.04,SW,225,0.7,1.6,77,0.00,,,0.00,pywws,2013-06-25 09:42:00,
2013-06-25 05:48:00,71.2,63.6,30.04,West,270,0.0,0.0,77,0.00,,,0.00,pywws,2013-06-25 09:48:00,
2013-06-25 05:54:00,71.1,63.5,30.04,West,270,0.0,0.0,77,0.00,,,0.00,pywws,2013-06-25 09:54:00,
2013-06-25 05:59:00,71.1,63.8,30.04,SW,225,0.0,0.7,78,0.00,,,0.00,pywws,2013-06-25 09:59:00,
2013-06-25 06:05:00,70.9,63.7,30.05,SW,225,0.0,0.0,78,0.00,,,0.00,pywws,2013-06-25 10:05:00,
2013-06-25 06:11:00,70.9,63.7,30.05,SE,135,0.0,1.6,78,0.00,,,0.00,pywws,2013-06-25 10:11:00,
2013-06-25 06:16:00,70.9,64.0,30.05,SW,225,0.0,0.0,79,0.00,,,0.00,pywws,2013-06-25 10:16:00,
2013-06-25 06:22:00,70.9,64.0,30.05,SW,225,0.7,1.6,79,0.00,,,0.00,pywws,2013-06-25 10:22:00,
2013-06-25 06:27:00,71.1,64.2,30.05,South,180,0.7,1.6,79,0.00,,,0.00,pywws,2013-06-25 10:27:00,
2013-06-25 06:33:00,71.1,64.2,30.05,SW,225,0.7,1.6,79,0.00,,,0.00,pywws,2013-06-25 10:33:00,
2013-06-25 06:39:00,71.2,64.4,30.05,South,180,1.6,2.2,79,0.00,,,0.00,pywws,2013-06-25 10:39:00,
2013-06-25 06:44:00,71.4,64.6,30.05,SW,225,2.2,3.8,79,0.00,,,0.00,pywws,2013-06-25 10:44:00,
2013-06-25 06:50:00,71.6,64.0,30.05,SW,225,0.7,1.6,77,0.00,,,0.00,pywws,2013-06-25 10:50:00,
2013-06-25 06:55:00,71.8,64.2,30.05,SW,225,1.6,3.1,77,0.00,,,0.00,pywws,2013-06-25 10:55:00,
2013-06-25 07:01:00,72.0,64.3,30.04,NW,315,0.7,1.6,77,0.00,,,0.00,pywws,2013-06-25 11:01:00,
2013-06-25 07:07:00,72.3,64.7,30.04,SW,225,0.0,0.0,77,0.00,,,0.00,pywws,2013-06-25 11:07:00,
2013-06-25 07:12:00,72.5,64.9,30.05,SW,225,0.7,1.6,77,0.00,,,0.00,pywws,2013-06-25 11:12:00,
2013-06-25 07:18:00,72.7,64.7,30.05,SW,225,4.5,7.6,76,0.00,,,0.00,pywws,2013-06-25 11:18:00,
2013-06-25 07:23:00,72.9,64.8,30.05,South,180,3.1,4.5,76,0.00,,,0.00,pywws,2013-06-25 11:23:00,
2013-06-25 07:29:00,73.0,64.6,30.04,West,270,0.7,3.1,75,0.00,,,0.00,pywws,2013-06-25 11:29:00,
2013-06-25 07:35:00,73.2,64.8,30.05,SW,225,2.2,3.8,75,0.00,,,0.00,pywws,2013-06-25 11:35:00,
2013-06-25 07:40:00,73.6,65.5,30.05,West,270,1.6,3.1,76,0.00,,,0.00,pywws,2013-06-25 11:40:00,
2013-06-25 07:46:00,73.9,65.9,30.04,SW,225,0.7,1.6,76,0.00,,,0.00,pywws,2013-06-25 11:46:00,
2013-06-25 07:51:00,74.3,66.2,30.04,West,270,1.6,3.8,76,0.00,,,0.00,pywws,2013-06-25 11:51:00,
2013-06-25 07:57:00,74.5,66.0,30.04,SW,225,2.2,4.5,75,0.00,,,0.00,pywws,2013-06-25 11:57:00,
2013-06-25 08:03:00,74.8,66.4,30.04,SW,225,3.8,5.4,75,0.00,,,0.00,pywws,2013-06-25 12:03:00,
2013-06-25 08:08:00,75.0,66.2,30.04,SW,225,4.5,5.4,74,0.00,,,0.00,pywws,2013-06-25 12:08:00,
2013-06-25 08:14:00,75.4,66.1,30.04,NW,315,2.2,3.8,73,0.00,,,0.00,pywws,2013-06-25 12:14:00,
2013-06-25 08:16:00,75.6,66.3,30.04,West,270,2.2,3.1,73,0.00,,,0.00,pywws,2013-06-25 12:16:00,
2013-06-25 08:22:00,75.7,66.5,30.04,West,270,1.6,3.1,73,0.00,,,0.00,pywws,2013-06-25 12:22:00,
2013-06-25 08:27:00,76.1,66.4,30.04,SW,225,3.1,4.5,72,0.00,,,0.00,pywws,2013-06-25 12:27:00,
2013-06-25 08:33:00,76.5,66.7,30.04,West,270,2.2,3.8,72,0.00,,,0.00,pywws,2013-06-25 12:33:00,
2013-06-25 08:39:00,76.8,66.7,30.04,WNW,292,1.6,3.8,71,0.00,,,0.00,pywws,2013-06-25 12:39:00,
2013-06-25 08:44:00,77.0,66.4,30.04,South,180,3.1,3.8,70,0.00,,,0.00,pywws,2013-06-25 12:44:00,
2013-06-25 08:50:00,77.4,66.8,30.04,South,180,3.1,5.4,70,0.00,,,0.00,pywws,2013-06-25 12:50:00,
2013-06-25 08:55:00,77.5,67.0,30.04,NW,315,2.2,3.1,70,0.00,,,0.00,pywws,2013-06-25 12:55:00,
2013-06-25 09:01:00,77.7,66.7,30.04,SW,225,2.2,3.1,69,0.00,,,0.00,pywws,2013-06-25 13:01:00,
2013-06-25 09:07:00,78.3,67.7,30.04,West,270,1.6,2.2,70,0.00,,,0.00,pywws,2013-06-25 13:07:00,
2013-06-25 09:12:00,78.6,68.0,30.04,SE,135,3.1,3.8,70,0.00,,,0.00,pywws,2013-06-25 13:12:00,
2013-06-25 09:18:00,79.0,67.5,30.03,West,270,3.1,4.5,68,0.00,,,0.00,pywws,2013-06-25 13:18:00,
2013-06-25 09:23:00,79.3,67.8,30.03,SW,225,3.1,3.8,68,0.00,,,0.00,pywws,2013-06-25 13:23:00,
2013-06-25 09:29:00,79.9,67.9,30.03,South,180,1.6,3.1,67,0.00,,,0.00,pywws,2013-06-25 13:29:00,
2013-06-25 09:35:00,80.6,68.2,30.03,SW,225,3.1,4.5,66,0.00,,,0.00,pywws,2013-06-25 13:35:00,
2013-06-25 09:40:00,81.3,68.4,30.03,West,270,0.7,2.2,65,0.00,,,0.00,pywws,2013-06-25 13:40:00,
2013-06-25 09:46:00,82.0,69.1,30.03,SW,225,4.5,5.4,65,0.00,,,0.00,pywws,2013-06-25 13:46:00,
2013-06-25 09:51:00,82.6,67.7,30.03,SW,225,1.6,3.8,61,0.00,,,0.00,pywws,2013-06-25 13:51:00,
2013-06-25 09:57:00,82.9,68.6,30.03,SW,225,1.6,3.1,62,0.00,,,0.00,pywws,2013-06-25 13:57:00,
2013-06-25 10:03:00,83.3,68.4,30.03,NW,315,5.4,6.0,61,0.00,,,0.00,pywws,2013-06-25 14:03:00,
2013-06-25 10:08:00,83.7,69.2,30.03,NW,315,3.1,4.5,62,0.00,,,0.00,pywws,2013-06-25 14:08:00,
2013-06-25 10:14:00,84.0,68.6,30.03,NW,315,1.6,2.2,60,0.00,,,0.00,pywws,2013-06-25 14:14:00,
2013-06-25 10:19:00,84.4,68.0,30.03,West,270,0.7,2.2,58,0.00,,,0.00,pywws,2013-06-25 14:19:00,
2013-06-25 10:25:00,84.7,67.8,30.03,NW,315,3.1,4.5,57,0.00,,,0.00,pywws,2013-06-25 14:25:00,
2013-06-25 10:31:00,85.3,69.3,30.03,West,270,5.4,6.9,59,0.00,,,0.00,pywws,2013-06-25 14:31:00,
2013-06-25 10:36:00,85.6,68.1,30.03,WSW,248,3.8,6.0,56,0.00,,,0.00,pywws,2013-06-25 14:36:00,
2013-06-25 10:42:00,86.0,69.0,30.03,East,90,1.6,3.8,57,0.00,,,0.00,pywws,2013-06-25 14:42:00,
2013-06-25 10:47:00,87.1,70.0,30.02,South,180,5.4,7.6,57,0.00,,,0.00,pywws,2013-06-25 14:47:00,
2013-06-25 10:53:00,87.6,69.4,30.03,WNW,292,3.1,4.5,55,0.00,,,0.00,pywws,2013-06-25 14:53:00,
2013-06-25 10:59:00,87.6,69.4,30.03,SW,225,1.6,3.1,55,0.00,,,0.00,pywws,2013-06-25 14:59:00,
2013-06-25 11:04:00,88.0,69.2,30.03,South,180,2.2,4.5,54,0.00,,,0.00,pywws,2013-06-25 15:04:00,
2013-06-25 11:10:00,88.5,69.2,30.03,SW,225,3.8,6.0,53,0.00,,,0.00,pywws,2013-06-25 15:10:00,
2013-06-25 11:15:00,88.3,68.4,30.03,West,270,4.5,6.0,52,0.00,,,0.00,pywws,2013-06-25 15:15:00,
2013-06-25 11:21:00,88.7,69.3,30.03,West,270,3.8,5.4,53,0.00,,,0.00,pywws,2013-06-25 15:21:00,
2013-06-25 11:27:00,88.9,69.5,30.03,ESE,112,0.7,1.6,53,0.00,,,0.00,pywws,2013-06-25 15:27:00,
2013-06-25 11:32:00,89.4,70.0,30.03,NW,315,3.8,6.0,53,0.00,,,0.00,pywws,2013-06-25 15:32:00,
2013-06-25 11:35:00,89.6,69.6,30.02,SW,225,3.8,5.4,52,0.00,,,0.00,pywws,2013-06-25 15:35:00,
2013-06-25 11:40:00,89.8,69.2,30.02,West,270,3.1,3.8,51,0.00,,,0.00,pywws,2013-06-25 15:40:00,
2013-06-25 11:46:00,90.1,69.5,30.02,NW,315,1.6,3.1,51,0.00,,,0.00,pywws,2013-06-25 15:46:00,
2013-06-25 11:51:00,90.3,70.3,30.02,SSW,202,4.5,7.6,52,0.00,,,0.00,pywws,2013-06-25 15:51:00,
2013-06-25 11:57:00,90.7,70.6,30.01,North,0,1.6,3.1,52,0.00,,,0.00,pywws,2013-06-25 15:57:00,
2013-06-25 12:03:00,90.9,70.2,30.01,South,180,3.8,6.9,51,0.00,,,0.00,pywws,2013-06-25 16:03:00,
2013-06-25 12:08:00,91.2,69.3,30.01,North,0,3.1,4.5,49,0.00,,,0.00,pywws,2013-06-25 16:08:00,
2013-06-25 12:13:00,91.4,70.1,30.01,SW,225,8.3,11.4,50,0.00,,,0.00,pywws,2013-06-25 16:13:00,
2013-06-25 12:19:00,91.9,69.4,30.01,NW,315,1.6,3.8,48,0.00,,,0.00,pywws,2013-06-25 16:19:00,
2013-06-25 12:24:00,92.1,69.6,30.01,SW,225,3.1,4.5,48,0.00,,,0.00,pywws,2013-06-25 16:24:00,
2013-06-25 12:30:00,92.1,69.6,30.00,WSW,248,7.6,9.8,48,0.00,,,0.00,pywws,2013-06-25 16:30:00,
2013-06-25 12:35:00,92.3,69.7,30.00,NE,45,3.1,7.6,48,0.00,,,0.00,pywws,2013-06-25 16:35:00,
2013-06-25 12:41:00,92.3,69.1,30.00,West,270,6.0,8.3,47,0.00,,,0.00,pywws,2013-06-25 16:41:00,
2013-06-25 12:47:00,92.3,68.5,30.00,NW,315,5.4,9.2,46,0.00,,,0.00,pywws,2013-06-25 16:47:00,
2013-06-25 12:52:00,91.8,68.6,29.99,NW,315,2.2,5.4,47,0.00,,,0.00,pywws,2013-06-25 16:52:00,
2013-06-25 12:58:00,92.1,70.2,29.99,WSW,248,6.0,7.6,49,0.00,,,0.00,pywws,2013-06-25 16:58:00,
2013-06-25 13:03:00,91.8,68.6,29.99,South,180,3.8,6.9,47,0.00,,,0.00,pywws,2013-06-25 17:03:00,
2013-06-25 13:09:00,91.6,68.5,29.98,West,270,4.5,6.0,47,0.00,,,0.00,pywws,2013-06-25 17:09:00,
2013-06-25 13:11:00,91.8,69.2,29.98,WNW,292,5.4,8.3,48,0.00,,,0.00,pywws,2013-06-25 17:11:00,
2013-06-25 13:16:00,91.4,67.7,29.98,SE,135,3.1,5.4,46,0.00,,,0.00,pywws,2013-06-25 17:16:00,
2013-06-25 13:22:00,91.2,66.9,29.97,SE,135,3.1,6.0,45,0.00,,,0.00,pywws,2013-06-25 17:22:00,
2013-06-25 13:27:00,91.8,68.0,29.98,West,270,6.9,8.3,46,0.00,,,0.00,pywws,2013-06-25 17:27:00,
2013-06-25 13:33:00,92.3,67.8,29.97,NW,315,4.5,8.3,45,0.00,,,0.00,pywws,2013-06-25 17:33:00,
2013-06-25 13:39:00,92.8,69.0,29.97,SW,225,6.9,10.7,46,0.00,,,0.00,pywws,2013-06-25 17:39:00,
2013-06-25 13:44:00,93.2,68.0,29.96,West,270,4.5,6.9,44,0.00,,,0.00,pywws,2013-06-25 17:44:00,
2013-06-25 13:50:00,93.6,69.0,29.96,SW,225,6.9,9.8,45,0.00,,,0.00,pywws,2013-06-25 17:50:00,
2013-06-25 13:55:00,94.3,69.0,29.96,South,180,3.8,6.0,44,0.00,,,0.00,pywws,2013-06-25 17:55:00,
2013-06-25 14:01:00,93.9,68.0,29.96,SW,225,9.8,13.6,43,0.00,,,0.00,pywws,2013-06-25 18:01:00,
2013-06-25 14:07:00,93.6,68.3,29.96,South,180,7.6,11.4,44,0.00,,,0.00,pywws,2013-06-25 18:07:00,
2013-06-25 14:12:00,92.8,68.3,29.96,SW,225,6.9,11.4,45,0.00,,,0.00,pywws,2013-06-25 18:12:00,
2013-06-25 14:18:00,93.2,68.7,29.96,SE,135,2.2,4.5,45,0.00,,,0.00,pywws,2013-06-25 18:18:00,
2013-06-25 14:23:00,93.2,68.7,29.96,SW,225,9.8,12.1,45,0.00,,,0.00,pywws,2013-06-25 18:23:00,
2013-06-25 14:29:00,93.4,68.2,29.96,NW,315,3.1,5.4,44,0.00,,,0.00,pywws,2013-06-25 18:29:00,
2013-06-25 14:35:00,93.6,68.3,29.96,WSW,248,8.3,10.7,44,0.00,,,0.00,pywws,2013-06-25 18:35:00,
2013-06-25 14:40:00,93.6,68.3,29.95,WSW,248,7.6,15.2,44,0.00,,,0.00,pywws,2013-06-25 18:40:00,
2013-06-25 14:46:00,93.9,68.6,29.95,West,270,5.4,12.1,44,0.00,,,0.00,pywws,2013-06-25 18:46:00,
2013-06-25 14:51:00,94.1,68.8,29.95,NW,315,7.6,10.7,44,0.00,,,0.00,pywws,2013-06-25 18:51:00,
2013-06-25 14:57:00,94.1,68.8,29.95,South,180,8.3,15.9,44,0.00,,,0.00,pywws,2013-06-25 18:57:00,
2013-06-25 15:03:00,94.1,68.8,29.95,WNW,292,5.4,11.4,44,0.00,,,0.00,pywws,2013-06-25 19:03:00,
2013-06-25 15:08:00,94.1,68.8,29.94,NW,315,10.7,14.5,44,0.00,,,0.00,pywws,2013-06-25 19:08:00,
2013-06-25 15:14:00,93.7,68.5,29.94,West,270,9.2,11.4,44,0.00,,,0.00,pywws,2013-06-25 19:14:00,
2013-06-25 15:19:00,92.5,68.0,29.94,SE,135,9.2,13.6,45,0.00,,,0.00,pywws,2013-06-25 19:19:00,
2013-06-25 15:25:00,91.8,68.0,29.94,West,270,5.4,8.3,46,0.00,,,0.00,pywws,2013-06-25 19:25:00,
2013-06-25 15:31:00,91.9,67.5,29.94,West,270,7.6,10.7,45,0.00,,,0.00,pywws,2013-06-25 19:31:00,
2013-06-25 15:36:00,91.8,68.0,29.94,South,180,8.3,13.0,46,0.00,,,0.00,pywws,2013-06-25 19:36:00,
2013-06-25 15:42:00,91.6,67.8,29.94,SW,225,9.8,13.6,46,0.00,,,0.00,pywws,2013-06-25 19:42:00,
2013-06-25 15:47:00,91.6,67.8,29.93,SW,225,7.6,10.7,46,0.00,,,0.00,pywws,2013-06-25 19:47:00,
2013-06-25 15:53:00,90.9,65.9,29.93,SW,225,9.8,13.6,44,0.00,,,0.00,pywws,2013-06-25 19:53:00,
2013-06-25 15:59:00,90.9,65.9,29.93,NW,315,4.5,7.6,44,0.00,,,0.00,pywws,2013-06-25 19:59:00,
2013-06-25 16:04:00,90.5,64.9,29.93,NW,315,6.9,9.8,43,0.00,,,0.00,pywws,2013-06-25 20:04:00,
2013-06-25 16:10:00,90.1,65.2,29.93,WSW,248,6.0,12.1,44,0.00,,,0.00,pywws,2013-06-25 20:10:00,
2013-06-25 16:15:00,89.6,64.8,29.93,SW,225,11.4,13.6,44,0.00,,,0.00,pywws,2013-06-25 20:15:00,
2013-06-25 16:21:00,89.2,65.1,29.94,NW,315,5.4,8.3,45,0.00,,,0.00,pywws,2013-06-25 20:21:00,
2013-06-25 16:27:00,88.9,65.4,29.94,South,180,9.8,13.0,46,0.00,,,0.00,pywws,2013-06-25 20:27:00,
2013-06-25 16:32:00,88.7,65.2,29.93,SW,225,6.0,9.2,46,0.00,,,0.00,pywws,2013-06-25 20:32:00,
2013-06-25 16:38:00,88.5,65.7,29.93,West,270,3.8,5.4,47,0.00,,,0.00,pywws,2013-06-25 20:38:00,
2013-06-25 16:43:00,88.3,65.5,29.92,NW,315,7.6,11.4,47,0.00,,,0.00,pywws,2013-06-25 20:43:00,
2013-06-25 16:49:00,88.2,65.3,29.92,NNW,338,7.6,10.7,47,0.00,,,0.00,pywws,2013-06-25 20:49:00,
2013-06-25 16:55:00,88.0,65.8,29.93,SW,225,9.2,13.6,48,0.00,,,0.00,pywws,2013-06-25 20:55:00,
2013-06-25 17:00:00,87.3,66.3,29.93,NW,315,8.3,13.6,50,0.00,,,0.00,pywws,2013-06-25 21:00:00,
2013-06-25 17:06:00,86.2,65.3,29.93,SW,225,6.9,9.2,50,0.00,,,0.00,pywws,2013-06-25 21:06:00,
2013-06-25 17:11:00,85.5,64.7,29.93,West,270,7.6,9.8,50,0.00,,,0.00,pywws,2013-06-25 21:11:00,
2013-06-25 17:17:00,85.1,64.3,29.92,NNW,338,3.8,6.9,50,0.00,,,0.00,pywws,2013-06-25 21:17:00,
2013-06-25 17:23:00,84.9,64.7,29.92,NW,315,4.5,6.9,51,0.00,,,0.00,pywws,2013-06-25 21:23:00,
2013-06-25 17:28:00,84.9,64.7,29.91,WNW,292,3.1,4.5,51,0.00,,,0.00,pywws,2013-06-25 21:28:00,
2013-06-25 17:34:00,84.9,64.7,29.91,South,180,6.0,9.8,51,0.00,,,0.00,pywws,2013-06-25 21:34:00,
2013-06-25 17:39:00,84.9,65.3,29.91,NW,315,4.5,6.9,52,0.00,,,0.00,pywws,2013-06-25 21:39:00,
2013-06-25 17:45:00,84.9,65.3,29.91,West,270,3.8,7.6,52,0.00,,,0.00,pywws,2013-06-25 21:45:00,
2013-06-25 17:51:00,85.1,65.5,29.91,SW,225,5.4,6.9,52,0.00,,,0.00,pywws,2013-06-25 21:51:00,
2013-06-25 17:56:00,85.3,65.6,29.91,NW,315,2.2,3.8,52,0.00,,,0.00,pywws,2013-06-25 21:56:00,
2013-06-25 18:02:00,85.3,66.2,29.90,South,180,5.4,7.6,53,0.00,,,0.00,pywws,2013-06-25 22:02:00,
2013-06-25 18:07:00,85.3,66.7,29.90,South,180,2.2,6.9,54,0.00,,,0.00,pywws,2013-06-25 22:07:00,
2013-06-25 18:13:00,85.6,67.1,29.91,SSE,158,2.2,4.5,54,0.00,,,0.00,pywws,2013-06-25 22:13:00,
2013-06-25 18:19:00,86.0,66.8,29.90,South,180,5.4,9.2,53,0.00,,,0.00,pywws,2013-06-25 22:19:00,
2013-06-25 18:24:00,86.2,67.0,29.90,SW,225,2.2,4.5,53,0.00,,,0.00,pywws,2013-06-25 22:24:00,
2013-06-25 18:30:00,86.4,67.7,29.89,SW,225,2.2,4.5,54,0.00,,,0.00,pywws,2013-06-25 22:30:00,
2013-06-25 18:35:00,86.7,68.1,29.89,SW,225,3.1,6.0,54,0.00,,,0.00,pywws,2013-06-25 22:35:00,
2013-06-25 18:41:00,86.9,68.2,29.90,NW,315,3.1,5.4,54,0.00,,,0.00,pywws,2013-06-25 22:41:00,
2013-06-25 18:47:00,87.1,67.8,29.90,South,180,6.9,12.1,53,0.00,,,0.00,pywws,2013-06-25 22:47:00,
2013-06-25 18:52:00,87.3,68.5,29.90,SSW,202,3.8,6.9,54,0.00,,,0.00,pywws,2013-06-25 22:52:00,
2013-06-25 18:58:00,87.8,67.9,29.91,SW,225,5.4,7.6,52,0.00,,,0.00,pywws,2013-06-25 22:58:00,
2013-06-25 19:03:00,88.3,68.4,29.90,SW,225,6.0,9.8,52,0.00,,,0.00,pywws,2013-06-25 23:03:00,
2013-06-25 19:09:00,88.5,68.6,29.90,West,270,6.0,9.2,52,0.00,,,0.00,pywws,2013-06-25 23:09:00,
2013-06-25 19:15:00,88.9,68.4,29.90,West,270,5.4,7.6,51,0.00,,,0.00,pywws,2013-06-25 23:15:00,
2013-06-25 19:20:00,88.3,67.9,29.90,West,270,5.4,9.8,51,0.00,,,0.00,pywws,2013-06-25 23:20:00,
2013-06-25 19:26:00,87.1,67.8,29.90,North,-999,7.6,10.7,53,0.00,,,0.00,pywws,2013-06-25 23:26:00,
2013-06-25 19:31:00,86.2,67.6,29.90,South,180,3.1,5.4,54,0.00,,,0.00,pywws,2013-06-25 23:31:00,
2013-06-25 19:37:00,85.5,67.4,29.90,SW,225,3.1,5.4,55,0.00,,,0.00,pywws,2013-06-25 23:37:00,
2013-06-25 19:41:00,85.1,67.6,29.90,NW,315,8.3,13.6,56,0.00,,,0.00,pywws,2013-06-25 23:41:00,
2013-06-25 19:47:00,84.6,67.1,29.90,West,270,3.1,5.4,56,0.00,,,0.00,pywws,2013-06-25 23:47:00,
2013-06-25 19:52:00,84.4,66.9,29.90,NW,315,6.0,8.3,56,0.00,,,0.00,pywws,2013-06-25 23:52:00,
2013-06-25 19:58:00,84.2,66.8,29.90,West,270,3.8,7.6,56,0.00,,,0.00,pywws,2013-06-25 23:58:00,
2013-06-25 20:03:00,84.2,66.8,29.90,SW,225,6.0,9.2,56,0.00,,,0.00,pywws,2013-06-26 00:03:00,
2013-06-25 20:09:00,84.0,66.6,29.90,NW,315,8.3,10.7,56,0.00,,,0.00,pywws,2013-06-26 00:09:00,
2013-06-25 20:15:00,84.0,66.6,29.91,SW,225,3.1,4.5,56,0.00,,,0.00,pywws,2013-06-26 00:15:00,
2013-06-25 20:20:00,84.0,66.1,29.91,SW,225,4.5,6.9,55,0.00,,,0.00,pywws,2013-06-26 00:20:00,
2013-06-25 20:26:00,84.0,65.6,29.91,WSW,248,13.0,18.3,54,0.00,,,0.00,pywws,2013-06-26 00:26:00,
2013-06-25 20:31:00,83.8,65.4,29.91,NW,315,8.3,13.6,54,0.00,,,0.00,pywws,2013-06-26 00:31:00,
2013-06-25 20:37:00,83.7,64.7,29.90,WSW,248,9.2,12.1,53,0.00,,,0.00,pywws,2013-06-26 00:37:00,
2013-06-25 20:43:00,83.7,65.2,29.91,West,270,6.0,11.4,54,0.00,,,0.00,pywws,2013-06-26 00:43:00,
2013-06-25 20:48:00,83.5,65.1,29.90,SW,225,5.4,9.2,54,0.00,,,0.00,pywws,2013-06-26 00:48:00,
2013-06-25 20:54:00,83.3,64.9,29.91,West,270,6.0,9.2,54,0.00,,,0.00,pywws,2013-06-26 00:54:00,
2013-06-25 20:59:00,83.3,64.9,29.91,SSW,202,3.8,6.9,54,0.00,,,0.00,pywws,2013-06-26 00:59:00,
2013-06-25 21:05:00,83.1,64.7,29.90,NW,315,9.8,13.6,54,0.00,,,0.00,pywws,2013-06-26 01:05:00,
2013-06-25 21:11:00,83.1,65.3,29.91,West,270,5.4,9.8,55,0.00,,,0.00,pywws,2013-06-26 01:11:00,
2013-06-25 21:16:00,82.9,65.1,29.91,NW,315,3.8,7.6,55,0.00,,,0.00,pywws,2013-06-26 01:16:00,
2013-06-25 21:22:00,82.6,64.8,29.92,North,0,1.6,3.1,55,0.00,,,0.00,pywws,2013-06-26 01:22:00,
2013-06-25 21:27:00,82.4,64.6,29.92,West,270,3.8,5.4,55,0.00,,,0.00,pywws,2013-06-26 01:27:00,
2013-06-25 21:33:00,82.2,64.9,29.92,West,270,3.1,4.5,56,0.00,,,0.00,pywws,2013-06-26 01:33:00,
2013-06-25 21:39:00,81.9,64.6,29.92,SW,225,3.1,6.0,56,0.00,,,0.00,pywws,2013-06-26 01:39:00,
2013-06-25 21:44:00,81.9,64.6,29.92,West,270,1.6,3.1,56,0.00,,,0.00,pywws,2013-06-26 01:44:00,
2013-06-25 21:50:00,81.7,64.9,29.92,SW,225,6.0,8.3,57,0.00,,,0.00,pywws,2013-06-26 01:50:00,
2013-06-25 21:55:00,81.5,64.8,29.92,South,180,2.2,3.8,57,0.00,,,0.00,pywws,2013-06-26 01:55:00,
2013-06-25 22:01:00,81.3,64.6,29.92,WSW,248,7.6,10.7,57,0.00,,,0.00,pywws,2013-06-26 02:01:00,
2013-06-25 22:07:00,81.3,64.6,29.92,South,180,0.7,2.2,57,0.00,,,0.00,pywws,2013-06-26 02:07:00,
2013-06-25 22:12:00,81.0,64.8,29.92,NW,315,3.1,5.4,58,0.00,,,0.00,pywws,2013-06-26 02:12:00,
2013-06-25 22:18:00,81.0,64.8,29.92,SW,225,3.1,6.0,58,0.00,,,0.00,pywws,2013-06-26 02:18:00,
2013-06-25 22:23:00,81.0,64.8,29.92,West,270,4.5,9.2,58,0.00,,,0.00,pywws,2013-06-26 02:23:00,
2013-06-25 22:29:00,81.0,64.8,29.92,SW,225,3.1,6.0,58,0.00,,,0.00,pywws,2013-06-26 02:29:00,
2013-06-25 22:35:00,80.8,64.6,29.92,West,270,2.2,3.8,58,0.00,,,0.00,pywws,2013-06-26 02:35:00,
2013-06-25 22:40:00,80.8,65.1,29.92,West,270,5.4,8.3,59,0.00,,,0.00,pywws,2013-06-26 02:40:00,
2013-06-25 22:46:00,80.8,65.1,29.92,SW,225,2.2,5.4,59,0.00,,,0.00,pywws,2013-06-26 02:46:00,
2013-06-25 22:51:00,80.6,64.9,29.92,West,270,3.8,5.4,59,0.00,,,0.00,pywws,2013-06-26 02:51:00,
2013-06-25 22:57:00,80.6,64.9,29.92,SW,225,3.1,4.5,59,0.00,,,0.00,pywws,2013-06-26 02:57:00,
2013-06-25 23:03:00,80.4,65.2,29.92,East,90,3.8,6.9,60,0.00,,,0.00,pywws,2013-06-26 03:03:00,
2013-06-25 23:08:00,80.4,65.2,29.92,NW,315,2.2,3.8,60,0.00,,,0.00,pywws,2013-06-26 03:08:00,
2013-06-25 23:14:00,80.4,65.7,29.93,SW,225,6.0,8.3,61,0.00,,,0.00,pywws,2013-06-26 03:14:00,
2013-06-25 23:19:00,80.4,65.7,29.93,SW,225,6.9,11.4,61,0.00,,,0.00,pywws,2013-06-26 03:19:00,
2013-06-25 23:25:00,80.4,65.7,29.92,West,270,2.2,3.8,61,0.00,,,0.00,pywws,2013-06-26 03:25:00,
2013-06-25 23:31:00,80.4,65.7,29.92,NW,315,6.9,10.7,61,0.00,,,0.00,pywws,2013-06-26 03:31:00,
2013-06-25 23:36:00,80.4,65.7,29.91,NW,315,5.4,6.9,61,0.00,,,0.00,pywws,2013-06-26 03:36:00,
2013-06-25 23:42:00,80.2,66.0,29.91,SW,225,4.5,7.6,62,0.00,,,0.00,pywws,2013-06-26 03:42:00,
2013-06-25 23:47:00,79.9,66.1,29.91,SW,225,3.8,6.9,63,0.00,,,0.00,pywws,2013-06-26 03:47:00,
2013-06-25 23:53:00,79.3,65.6,29.91,North,0,1.6,3.8,63,0.00,,,0.00,pywws,2013-06-26 03:53:00,
2013-06-25 23:59:00,79.2,65.9,29.90,West,270,6.0,9.2,64,0.00,,,0.00,pywws,2013-06-26 03:59:00,